sensor_id;sensor_type;location;lat;lon;timestamp;P1;durP1;ratioP1;P2;durP2;ratioP2
9924;SDS011;5001;51.674;7.868;2024-02-26T00:01:20;17.00;;;15.97;;
9924;SDS011;5001;51.674;7.868;2024-02-26T00:03:48;17.03;;;16.00;;
9924;SDS011;5001;51.674;7.868;2024-02-26T00:06:15;16.93;;;15.93;;
9924;SDS011;5001;51.674;7.868;2024-02-26T00:08:44;16.83;;;15.83;;
9924;SDS011;5001;51.674;7.868;2024-02-26T00:11:11;17.37;;;16.17;;
9924;SDS011;5001;51.674;7.868;2024-02-26T00:13:38;17.40;;;16.30;;
9924;SDS011;5001;51.674;7.868;2024-02-26T00:16:05;17.57;;;16.33;;
9924;SDS011;5001;51.674;7.868;2024-02-26T00:18:33;17.43;;;16.23;;
9924;SDS011;5001;51.674;7.868;2024-02-26T00:21:01;17.30;;;16.20;;
9924;SDS011;5001;51.674;7.868;2024-02-26T00:23:29;17.10;;;16.00;;
9924;SDS011;5001;51.674;7.868;2024-02-26T00:25:56;17.03;;;16.03;;
9924;SDS011;5001;51.674;7.868;2024-02-26T00:28:23;17.00;;;16.00;;
9924;SDS011;5001;51.674;7.868;2024-02-26T00:30:51;17.07;;;15.97;;
9924;SDS011;5001;51.674;7.868;2024-02-26T00:33:22;16.93;;;15.93;;
9924;SDS011;5001;51.674;7.868;2024-02-26T00:35:49;17.13;;;16.03;;
9924;SDS011;5001;51.674;7.868;2024-02-26T00:38:16;16.97;;;15.97;;
9924;SDS011;5001;51.674;7.868;2024-02-26T00:40:43;17.23;;;16.23;;
9924;SDS011;5001;51.674;7.868;2024-02-26T00:43:10;17.07;;;16.07;;
9924;SDS011;5001;51.674;7.868;2024-02-26T00:45:37;17.30;;;16.30;;
9924;SDS011;5001;51.674;7.868;2024-02-26T00:48:04;17.33;;;16.23;;
9924;SDS011;5001;51.674;7.868;2024-02-26T00:50:32;17.17;;;16.17;;
9924;SDS011;5001;51.674;7.868;2024-02-26T00:53:00;17.20;;;16.10;;
9924;SDS011;5001;51.674;7.868;2024-02-26T00:55:27;17.00;;;15.90;;
9924;SDS011;5001;51.674;7.868;2024-02-26T00:57:54;16.77;;;15.77;;
9924;SDS011;5001;51.674;7.868;2024-02-26T01:00:22;17.20;;;16.20;;
9924;SDS011;5001;51.674;7.868;2024-02-26T01:02:49;17.43;;;16.20;;
9924;SDS011;5001;51.674;7.868;2024-02-26T01:05:16;17.47;;;16.37;;
9924;SDS011;5001;51.674;7.868;2024-02-26T01:07:43;17.10;;;16.00;;
9924;SDS011;5001;51.674;7.868;2024-02-26T01:10:10;17.33;;;16.00;;
9924;SDS011;5001;51.674;7.868;2024-02-26T01:12:37;17.07;;;16.07;;
9924;SDS011;5001;51.674;7.868;2024-02-26T01:15:05;17.00;;;16.00;;
9924;SDS011;5001;51.674;7.868;2024-02-26T01:17:32;16.97;;;15.97;;
9924;SDS011;5001;51.674;7.868;2024-02-26T01:20:00;17.83;;;16.43;;
9924;SDS011;5001;51.674;7.868;2024-02-26T01:22:27;17.17;;;16.07;;
9924;SDS011;5001;51.674;7.868;2024-02-26T01:24:54;16.73;;;15.73;;
9924;SDS011;5001;51.674;7.868;2024-02-26T01:27:21;16.50;;;15.60;;
9924;SDS011;5001;51.674;7.868;2024-02-26T01:29:52;16.43;;;15.47;;
9924;SDS011;5001;51.674;7.868;2024-02-26T01:32:19;16.60;;;15.60;;
9924;SDS011;5001;51.674;7.868;2024-02-26T01:34:46;16.40;;;15.40;;
9924;SDS011;5001;51.674;7.868;2024-02-26T01:37:13;16.23;;;15.23;;
9924;SDS011;5001;51.674;7.868;2024-02-26T01:39:40;16.03;;;15.07;;
9924;SDS011;5001;51.674;7.868;2024-02-26T01:42:08;16.40;;;15.40;;
9924;SDS011;5001;51.674;7.868;2024-02-26T01:44:35;16.47;;;15.47;;
9924;SDS011;5001;51.674;7.868;2024-02-26T01:47:02;16.07;;;15.07;;
9924;SDS011;5001;51.674;7.868;2024-02-26T01:49:30;16.87;;;15.77;;
9924;SDS011;5001;51.674;7.868;2024-02-26T01:51:57;16.03;;;15.13;;
9924;SDS011;5001;51.674;7.868;2024-02-26T01:54:25;15.97;;;15.07;;
9924;SDS011;5001;51.674;7.868;2024-02-26T01:56:52;16.47;;;15.37;;
9924;SDS011;5001;51.674;7.868;2024-02-26T01:59:19;15.93;;;15.00;;
9924;SDS011;5001;51.674;7.868;2024-02-26T02:01:47;16.63;;;15.50;;
9924;SDS011;5001;51.674;7.868;2024-02-26T02:04:19;16.53;;;15.47;;
9924;SDS011;5001;51.674;7.868;2024-02-26T02:06:47;15.77;;;14.87;;
9924;SDS011;5001;51.674;7.868;2024-02-26T02:09:15;16.17;;;15.20;;
9924;SDS011;5001;51.674;7.868;2024-02-26T02:11:43;15.90;;;14.90;;
9924;SDS011;5001;51.674;7.868;2024-02-26T02:14:10;16.00;;;15.10;;
9924;SDS011;5001;51.674;7.868;2024-02-26T02:16:37;15.70;;;14.70;;
9924;SDS011;5001;51.674;7.868;2024-02-26T02:19:04;15.93;;;15.03;;
9924;SDS011;5001;51.674;7.868;2024-02-26T02:21:31;16.07;;;15.10;;
9924;SDS011;5001;51.674;7.868;2024-02-26T02:23:58;16.13;;;15.03;;
9924;SDS011;5001;51.674;7.868;2024-02-26T02:26:25;16.20;;;15.20;;
9924;SDS011;5001;51.674;7.868;2024-02-26T02:28:52;15.60;;;14.70;;
9924;SDS011;5001;51.674;7.868;2024-02-26T02:31:19;15.70;;;14.70;;
9924;SDS011;5001;51.674;7.868;2024-02-26T02:33:46;15.57;;;14.67;;
9924;SDS011;5001;51.674;7.868;2024-02-26T02:36:14;15.73;;;14.73;;
9924;SDS011;5001;51.674;7.868;2024-02-26T02:38:50;15.87;;;14.80;;
9924;SDS011;5001;51.674;7.868;2024-02-26T02:41:18;16.43;;;15.43;;
9924;SDS011;5001;51.674;7.868;2024-02-26T02:43:45;16.17;;;15.17;;
9924;SDS011;5001;51.674;7.868;2024-02-26T02:46:12;15.57;;;14.67;;
9924;SDS011;5001;51.674;7.868;2024-02-26T02:48:41;15.63;;;14.73;;
9924;SDS011;5001;51.674;7.868;2024-02-26T02:51:08;16.00;;;15.10;;
9924;SDS011;5001;51.674;7.868;2024-02-26T02:53:36;16.30;;;15.30;;
9924;SDS011;5001;51.674;7.868;2024-02-26T02:56:03;16.10;;;15.20;;
9924;SDS011;5001;51.674;7.868;2024-02-26T02:58:30;15.83;;;14.93;;
9924;SDS011;5001;51.674;7.868;2024-02-26T03:04:57;16.23;;;15.30;;
9924;SDS011;5001;51.674;7.868;2024-02-26T03:07:24;15.70;;;14.80;;
9924;SDS011;5001;51.674;7.868;2024-02-26T03:09:51;15.50;;;14.60;;
9924;SDS011;5001;51.674;7.868;2024-02-26T03:12:18;16.00;;;15.10;;
9924;SDS011;5001;51.674;7.868;2024-02-26T03:14:45;15.50;;;14.60;;
9924;SDS011;5001;51.674;7.868;2024-02-26T03:17:12;15.47;;;14.57;;
9924;SDS011;5001;51.674;7.868;2024-02-26T03:19:39;15.20;;;14.30;;
9924;SDS011;5001;51.674;7.868;2024-02-26T03:22:06;15.23;;;14.33;;
9924;SDS011;5001;51.674;7.868;2024-02-26T03:24:33;15.00;;;14.20;;
9924;SDS011;5001;51.674;7.868;2024-02-26T03:27:00;15.03;;;14.23;;
9924;SDS011;5001;51.674;7.868;2024-02-26T03:29:27;15.20;;;14.37;;
9924;SDS011;5001;51.674;7.868;2024-02-26T03:31:54;15.57;;;14.57;;
9924;SDS011;5001;51.674;7.868;2024-02-26T03:34:21;15.30;;;14.40;;
9924;SDS011;5001;51.674;7.868;2024-02-26T03:36:48;15.73;;;14.73;;
9924;SDS011;5001;51.674;7.868;2024-02-26T03:39:15;15.30;;;14.40;;
9924;SDS011;5001;51.674;7.868;2024-02-26T03:41:42;15.40;;;14.50;;
9924;SDS011;5001;51.674;7.868;2024-02-26T03:44:09;15.50;;;14.60;;
9924;SDS011;5001;51.674;7.868;2024-02-26T03:46:36;15.43;;;14.57;;
9924;SDS011;5001;51.674;7.868;2024-02-26T03:49:03;15.60;;;14.60;;
9924;SDS011;5001;51.674;7.868;2024-02-26T03:51:30;16.67;;;15.20;;
9924;SDS011;5001;51.674;7.868;2024-02-26T03:53:59;15.53;;;14.63;;
9924;SDS011;5001;51.674;7.868;2024-02-26T03:56:26;15.47;;;14.57;;
9924;SDS011;5001;51.674;7.868;2024-02-26T03:58:54;16.10;;;15.00;;
9924;SDS011;5001;51.674;7.868;2024-02-26T04:01:21;16.00;;;15.10;;
9924;SDS011;5001;51.674;7.868;2024-02-26T04:03:48;16.10;;;15.10;;
9924;SDS011;5001;51.674;7.868;2024-02-26T04:06:15;16.00;;;15.00;;
9924;SDS011;5001;51.674;7.868;2024-02-26T04:08:44;15.90;;;15.00;;
9924;SDS011;5001;51.674;7.868;2024-02-26T04:11:11;15.50;;;14.60;;
9924;SDS011;5001;51.674;7.868;2024-02-26T04:13:38;15.80;;;14.90;;
9924;SDS011;5001;51.674;7.868;2024-02-26T04:16:05;16.67;;;15.57;;
9924;SDS011;5001;51.674;7.868;2024-02-26T04:18:32;16.20;;;15.20;;
9924;SDS011;5001;51.674;7.868;2024-02-26T04:21:00;16.10;;;15.20;;
9924;SDS011;5001;51.674;7.868;2024-02-26T04:23:27;16.10;;;15.10;;
9924;SDS011;5001;51.674;7.868;2024-02-26T04:25:54;15.70;;;14.80;;
9924;SDS011;5001;51.674;7.868;2024-02-26T04:28:21;16.00;;;15.10;;
9924;SDS011;5001;51.674;7.868;2024-02-26T04:30:48;15.97;;;15.07;;
9924;SDS011;5001;51.674;7.868;2024-02-26T04:33:14;15.90;;;15.00;;
9924;SDS011;5001;51.674;7.868;2024-02-26T04:35:42;16.20;;;15.20;;
9924;SDS011;5001;51.674;7.868;2024-02-26T04:38:09;16.00;;;14.70;;
9924;SDS011;5001;51.674;7.868;2024-02-26T04:40:36;15.37;;;14.47;;
9924;SDS011;5001;51.674;7.868;2024-02-26T04:43:03;15.73;;;14.73;;
9924;SDS011;5001;51.674;7.868;2024-02-26T04:45:30;15.60;;;14.70;;
9924;SDS011;5001;51.674;7.868;2024-02-26T04:47:57;15.93;;;14.93;;
9924;SDS011;5001;51.674;7.868;2024-02-26T04:50:24;16.20;;;15.20;;
9924;SDS011;5001;51.674;7.868;2024-02-26T04:52:50;15.63;;;14.70;;
9924;SDS011;5001;51.674;7.868;2024-02-26T04:55:17;15.80;;;14.90;;
9924;SDS011;5001;51.674;7.868;2024-02-26T04:57:44;16.60;;;15.17;;
9924;SDS011;5001;51.674;7.868;2024-02-26T05:00:11;16.20;;;15.20;;
9924;SDS011;5001;51.674;7.868;2024-02-26T05:02:39;15.87;;;14.97;;
9924;SDS011;5001;51.674;7.868;2024-02-26T05:05:06;16.40;;;15.40;;
9924;SDS011;5001;51.674;7.868;2024-02-26T05:07:39;16.30;;;15.30;;
9924;SDS011;5001;51.674;7.868;2024-02-26T05:10:09;16.47;;;15.37;;
9924;SDS011;5001;51.674;7.868;2024-02-26T05:12:37;16.70;;;15.70;;
9924;SDS011;5001;51.674;7.868;2024-02-26T05:15:04;16.73;;;15.23;;
9924;SDS011;5001;51.674;7.868;2024-02-26T05:17:32;16.17;;;15.17;;
9924;SDS011;5001;51.674;7.868;2024-02-26T05:19:59;16.33;;;15.20;;
9924;SDS011;5001;51.674;7.868;2024-02-26T05:22:26;15.90;;;15.00;;
9924;SDS011;5001;51.674;7.868;2024-02-26T05:24:52;16.27;;;15.17;;
9924;SDS011;5001;51.674;7.868;2024-02-26T05:27:20;16.53;;;15.43;;
9924;SDS011;5001;51.674;7.868;2024-02-26T05:29:47;15.87;;;14.87;;
9924;SDS011;5001;51.674;7.868;2024-02-26T05:32:14;16.50;;;15.40;;
9924;SDS011;5001;51.674;7.868;2024-02-26T05:34:41;16.07;;;15.07;;
9924;SDS011;5001;51.674;7.868;2024-02-26T05:37:08;16.17;;;15.17;;
9924;SDS011;5001;51.674;7.868;2024-02-26T05:39:35;16.03;;;15.13;;
9924;SDS011;5001;51.674;7.868;2024-02-26T05:42:02;16.60;;;15.60;;
9924;SDS011;5001;51.674;7.868;2024-02-26T05:44:29;16.57;;;15.57;;
9924;SDS011;5001;51.674;7.868;2024-02-26T05:46:56;16.40;;;15.50;;
9924;SDS011;5001;51.674;7.868;2024-02-26T05:49:23;16.80;;;15.80;;
9924;SDS011;5001;51.674;7.868;2024-02-26T05:51:50;17.60;;;16.10;;
9924;SDS011;5001;51.674;7.868;2024-02-26T05:54:17;18.37;;;17.07;;
9924;SDS011;5001;51.674;7.868;2024-02-26T05:56:44;17.87;;;16.63;;
9924;SDS011;5001;51.674;7.868;2024-02-26T05:59:11;18.43;;;17.03;;
9924;SDS011;5001;51.674;7.868;2024-02-26T06:01:38;18.07;;;16.67;;
9924;SDS011;5001;51.674;7.868;2024-02-26T06:04:05;16.70;;;15.70;;
9924;SDS011;5001;51.674;7.868;2024-02-26T06:06:32;16.60;;;15.60;;
9924;SDS011;5001;51.674;7.868;2024-02-26T06:08:59;17.50;;;16.17;;
9924;SDS011;5001;51.674;7.868;2024-02-26T06:11:26;17.27;;;16.17;;
9924;SDS011;5001;51.674;7.868;2024-02-26T06:13:53;17.17;;;16.00;;
9924;SDS011;5001;51.674;7.868;2024-02-26T06:16:20;16.87;;;15.80;;
9924;SDS011;5001;51.674;7.868;2024-02-26T06:18:47;17.40;;;16.10;;
9924;SDS011;5001;51.674;7.868;2024-02-26T06:21:14;16.73;;;15.63;;
9924;SDS011;5001;51.674;7.868;2024-02-26T06:23:41;16.87;;;15.87;;
9924;SDS011;5001;51.674;7.868;2024-02-26T06:26:08;17.63;;;16.43;;
9924;SDS011;5001;51.674;7.868;2024-02-26T06:28:36;17.10;;;16.00;;
9924;SDS011;5001;51.674;7.868;2024-02-26T06:31:06;19.17;;;17.40;;
9924;SDS011;5001;51.674;7.868;2024-02-26T06:33:33;17.77;;;16.33;;
9924;SDS011;5001;51.674;7.868;2024-02-26T06:36:01;16.60;;;15.60;;
9924;SDS011;5001;51.674;7.868;2024-02-26T06:38:28;17.20;;;16.20;;
9924;SDS011;5001;51.674;7.868;2024-02-26T06:40:55;17.33;;;15.90;;
9924;SDS011;5001;51.674;7.868;2024-02-26T06:43:22;16.70;;;15.70;;
9924;SDS011;5001;51.674;7.868;2024-02-26T06:45:49;16.70;;;15.70;;
9924;SDS011;5001;51.674;7.868;2024-02-26T06:48:15;16.93;;;15.93;;
9924;SDS011;5001;51.674;7.868;2024-02-26T06:50:43;17.37;;;16.20;;
9924;SDS011;5001;51.674;7.868;2024-02-26T06:53:10;17.07;;;16.03;;
9924;SDS011;5001;51.674;7.868;2024-02-26T06:55:37;16.80;;;15.80;;
9924;SDS011;5001;51.674;7.868;2024-02-26T06:58:06;17.37;;;16.27;;
9924;SDS011;5001;51.674;7.868;2024-02-26T07:00:33;17.13;;;16.03;;
9924;SDS011;5001;51.674;7.868;2024-02-26T07:03:00;17.00;;;15.90;;
9924;SDS011;5001;51.674;7.868;2024-02-26T07:05:28;16.70;;;15.70;;
9924;SDS011;5001;51.674;7.868;2024-02-26T07:07:55;17.67;;;16.23;;
9924;SDS011;5001;51.674;7.868;2024-02-26T07:10:22;17.03;;;15.93;;
9924;SDS011;5001;51.674;7.868;2024-02-26T07:12:49;16.63;;;15.63;;
9924;SDS011;5001;51.674;7.868;2024-02-26T07:15:16;16.30;;;15.30;;
9924;SDS011;5001;51.674;7.868;2024-02-26T07:17:43;16.60;;;15.60;;
9924;SDS011;5001;51.674;7.868;2024-02-26T07:20:14;16.50;;;15.50;;
9924;SDS011;5001;51.674;7.868;2024-02-26T07:22:41;16.47;;;15.47;;
9924;SDS011;5001;51.674;7.868;2024-02-26T07:25:09;16.93;;;15.67;;
9924;SDS011;5001;51.674;7.868;2024-02-26T07:27:39;17.23;;;15.90;;
9924;SDS011;5001;51.674;7.868;2024-02-26T07:30:07;17.13;;;15.90;;
9924;SDS011;5001;51.674;7.868;2024-02-26T07:32:37;17.00;;;15.80;;
9924;SDS011;5001;51.674;7.868;2024-02-26T07:35:04;16.70;;;15.60;;
9924;SDS011;5001;51.674;7.868;2024-02-26T07:37:32;17.40;;;16.20;;
9924;SDS011;5001;51.674;7.868;2024-02-26T07:39:59;16.97;;;15.90;;
9924;SDS011;5001;51.674;7.868;2024-02-26T07:42:26;16.90;;;15.80;;
9924;SDS011;5001;51.674;7.868;2024-02-26T07:44:53;17.10;;;16.00;;
9924;SDS011;5001;51.674;7.868;2024-02-26T07:47:20;16.90;;;15.80;;
9924;SDS011;5001;51.674;7.868;2024-02-26T07:49:48;17.20;;;16.00;;
9924;SDS011;5001;51.674;7.868;2024-02-26T07:52:14;17.10;;;16.00;;
9924;SDS011;5001;51.674;7.868;2024-02-26T07:54:41;16.87;;;15.77;;
9924;SDS011;5001;51.674;7.868;2024-02-26T07:57:08;16.37;;;15.37;;
9924;SDS011;5001;51.674;7.868;2024-02-26T07:59:35;16.60;;;15.60;;
9924;SDS011;5001;51.674;7.868;2024-02-26T08:02:02;16.70;;;15.70;;
9924;SDS011;5001;51.674;7.868;2024-02-26T08:04:32;16.77;;;15.77;;
9924;SDS011;5001;51.674;7.868;2024-02-26T08:06:59;16.83;;;15.73;;
9924;SDS011;5001;51.674;7.868;2024-02-26T08:09:26;16.50;;;15.50;;
9924;SDS011;5001;51.674;7.868;2024-02-26T08:11:53;16.27;;;15.27;;
9924;SDS011;5001;51.674;7.868;2024-02-26T08:14:20;16.50;;;15.40;;
9924;SDS011;5001;51.674;7.868;2024-02-26T08:16:47;16.27;;;15.27;;
9924;SDS011;5001;51.674;7.868;2024-02-26T08:19:15;16.23;;;15.23;;
9924;SDS011;5001;51.674;7.868;2024-02-26T08:21:42;16.40;;;15.40;;
9924;SDS011;5001;51.674;7.868;2024-02-26T08:24:09;16.53;;;15.43;;
9924;SDS011;5001;51.674;7.868;2024-02-26T08:26:36;16.80;;;15.70;;
9924;SDS011;5001;51.674;7.868;2024-02-26T08:29:03;16.40;;;15.30;;
9924;SDS011;5001;51.674;7.868;2024-02-26T08:31:30;16.00;;;15.00;;
9924;SDS011;5001;51.674;7.868;2024-02-26T08:33:57;16.57;;;15.47;;
9924;SDS011;5001;51.674;7.868;2024-02-26T08:36:26;16.50;;;15.27;;
9924;SDS011;5001;51.674;7.868;2024-02-26T08:38:53;16.00;;;15.00;;
9924;SDS011;5001;51.674;7.868;2024-02-26T08:41:20;15.63;;;14.70;;
9924;SDS011;5001;51.674;7.868;2024-02-26T08:43:46;16.53;;;15.43;;
9924;SDS011;5001;51.674;7.868;2024-02-26T08:46:13;17.10;;;15.80;;
9924;SDS011;5001;51.674;7.868;2024-02-26T08:48:40;16.77;;;15.57;;
9924;SDS011;5001;51.674;7.868;2024-02-26T08:51:08;16.60;;;15.40;;
9924;SDS011;5001;51.674;7.868;2024-02-26T08:53:35;15.97;;;14.97;;
9924;SDS011;5001;51.674;7.868;2024-02-26T08:56:09;16.47;;;15.30;;
9924;SDS011;5001;51.674;7.868;2024-02-26T08:58:43;16.00;;;15.00;;
9924;SDS011;5001;51.674;7.868;2024-02-26T09:01:10;16.00;;;14.90;;
9924;SDS011;5001;51.674;7.868;2024-02-26T09:03:37;16.20;;;15.20;;
9924;SDS011;5001;51.674;7.868;2024-02-26T09:06:04;15.77;;;14.70;;
9924;SDS011;5001;51.674;7.868;2024-02-26T09:08:33;15.53;;;14.63;;
9924;SDS011;5001;51.674;7.868;2024-02-26T09:11:02;15.90;;;14.90;;
9924;SDS011;5001;51.674;7.868;2024-02-26T09:13:30;15.80;;;14.80;;
9924;SDS011;5001;51.674;7.868;2024-02-26T09:15:57;15.53;;;14.63;;
9924;SDS011;5001;51.674;7.868;2024-02-26T09:18:25;15.40;;;14.50;;
9924;SDS011;5001;51.674;7.868;2024-02-26T09:20:52;16.13;;;15.10;;
9924;SDS011;5001;51.674;7.868;2024-02-26T09:23:19;15.50;;;14.60;;
9924;SDS011;5001;51.674;7.868;2024-02-26T09:25:46;15.90;;;14.90;;
9924;SDS011;5001;51.674;7.868;2024-02-26T09:28:13;16.63;;;15.33;;
9924;SDS011;5001;51.674;7.868;2024-02-26T09:30:43;16.13;;;15.03;;
9924;SDS011;5001;51.674;7.868;2024-02-26T09:33:11;16.27;;;15.17;;
9924;SDS011;5001;51.674;7.868;2024-02-26T09:35:41;15.97;;;14.97;;
9924;SDS011;5001;51.674;7.868;2024-02-26T09:38:08;16.50;;;15.43;;
9924;SDS011;5001;51.674;7.868;2024-02-26T09:40:35;16.30;;;15.20;;
9924;SDS011;5001;51.674;7.868;2024-02-26T09:43:04;16.63;;;15.43;;
9924;SDS011;5001;51.674;7.868;2024-02-26T09:45:32;17.00;;;15.50;;
9924;SDS011;5001;51.674;7.868;2024-02-26T09:48:01;15.97;;;14.97;;
9924;SDS011;5001;51.674;7.868;2024-02-26T09:50:31;15.93;;;14.83;;
9924;SDS011;5001;51.674;7.868;2024-02-26T09:52:58;15.93;;;14.93;;
9924;SDS011;5001;51.674;7.868;2024-02-26T09:55:29;16.33;;;15.23;;
9924;SDS011;5001;51.674;7.868;2024-02-26T09:57:56;18.60;;;16.97;;
9924;SDS011;5001;51.674;7.868;2024-02-26T10:00:25;16.80;;;15.63;;
9924;SDS011;5001;51.674;7.868;2024-02-26T10:02:59;17.57;;;16.33;;
9924;SDS011;5001;51.674;7.868;2024-02-26T10:05:31;17.07;;;15.80;;
9924;SDS011;5001;51.674;7.868;2024-02-26T10:08:00;16.83;;;15.67;;
9924;SDS011;5001;51.674;7.868;2024-02-26T10:10:28;16.20;;;15.10;;
9924;SDS011;5001;51.674;7.868;2024-02-26T10:12:55;17.60;;;16.20;;
9924;SDS011;5001;51.674;7.868;2024-02-26T10:15:22;16.97;;;15.87;;
9924;SDS011;5001;51.674;7.868;2024-02-26T10:17:50;17.33;;;16.03;;
9924;SDS011;5001;51.674;7.868;2024-02-26T10:20:17;17.40;;;16.10;;
9924;SDS011;5001;51.674;7.868;2024-02-26T10:22:48;17.13;;;15.93;;
9924;SDS011;5001;51.674;7.868;2024-02-26T10:25:15;16.87;;;15.77;;
9924;SDS011;5001;51.674;7.868;2024-02-26T10:27:42;17.17;;;15.97;;
9924;SDS011;5001;51.674;7.868;2024-02-26T10:30:15;16.57;;;15.27;;
9924;SDS011;5001;51.674;7.868;2024-02-26T10:32:46;16.63;;;15.50;;
9924;SDS011;5001;51.674;7.868;2024-02-26T10:35:15;16.63;;;15.50;;
9924;SDS011;5001;51.674;7.868;2024-02-26T10:37:44;17.83;;;16.50;;
9924;SDS011;5001;51.674;7.868;2024-02-26T10:40:13;17.80;;;16.30;;
9924;SDS011;5001;51.674;7.868;2024-02-26T10:42:41;16.70;;;15.53;;
9924;SDS011;5001;51.674;7.868;2024-02-26T10:45:09;16.67;;;15.50;;
9924;SDS011;5001;51.674;7.868;2024-02-26T10:47:36;16.47;;;15.37;;
9924;SDS011;5001;51.674;7.868;2024-02-26T10:50:05;17.67;;;16.37;;
9924;SDS011;5001;51.674;7.868;2024-02-26T10:52:34;16.80;;;15.70;;
9924;SDS011;5001;51.674;7.868;2024-02-26T10:55:02;17.07;;;15.87;;
9924;SDS011;5001;51.674;7.868;2024-02-26T10:57:33;17.00;;;15.90;;
9924;SDS011;5001;51.674;7.868;2024-02-26T11:00:05;17.10;;;15.90;;
9924;SDS011;5001;51.674;7.868;2024-02-26T11:02:33;17.03;;;15.70;;
9924;SDS011;5001;51.674;7.868;2024-02-26T11:05:03;17.73;;;16.10;;
9924;SDS011;5001;51.674;7.868;2024-02-26T11:07:30;17.97;;;16.57;;
9924;SDS011;5001;51.674;7.868;2024-02-26T11:10:02;17.63;;;16.43;;
9924;SDS011;5001;51.674;7.868;2024-02-26T11:12:31;17.23;;;16.07;;
9924;SDS011;5001;51.674;7.868;2024-02-26T11:14:59;18.27;;;16.90;;
9924;SDS011;5001;51.674;7.868;2024-02-26T11:17:28;18.80;;;17.00;;
9924;SDS011;5001;51.674;7.868;2024-02-26T11:19:59;18.53;;;16.97;;
9924;SDS011;5001;51.674;7.868;2024-02-26T11:22:29;17.67;;;16.37;;
9924;SDS011;5001;51.674;7.868;2024-02-26T11:24:56;18.17;;;16.87;;
9924;SDS011;5001;51.674;7.868;2024-02-26T11:27:25;18.70;;;17.20;;
9924;SDS011;5001;51.674;7.868;2024-02-26T11:29:57;18.07;;;16.77;;
9924;SDS011;5001;51.674;7.868;2024-02-26T11:32:27;18.93;;;17.50;;
9924;SDS011;5001;51.674;7.868;2024-02-26T11:34:57;19.70;;;17.97;;
9924;SDS011;5001;51.674;7.868;2024-02-26T11:37:25;19.10;;;17.63;;
9924;SDS011;5001;51.674;7.868;2024-02-26T11:39:52;19.10;;;17.60;;
9924;SDS011;5001;51.674;7.868;2024-02-26T11:42:22;18.90;;;17.40;;
9924;SDS011;5001;51.674;7.868;2024-02-26T11:44:55;18.87;;;17.40;;
9924;SDS011;5001;51.674;7.868;2024-02-26T11:47:29;19.30;;;17.80;;
9924;SDS011;5001;51.674;7.868;2024-02-26T11:49:56;19.30;;;17.70;;
9924;SDS011;5001;51.674;7.868;2024-02-26T11:52:23;18.87;;;17.47;;
9924;SDS011;5001;51.674;7.868;2024-02-26T11:54:54;19.13;;;17.63;;
9924;SDS011;5001;51.674;7.868;2024-02-26T11:57:30;19.47;;;17.80;;
9924;SDS011;5001;51.674;7.868;2024-02-26T12:07:40;19.60;;;18.03;;
9924;SDS011;5001;51.674;7.868;2024-02-26T12:10:42;18.90;;;17.30;;
9924;SDS011;5001;51.674;7.868;2024-02-26T12:15:39;18.47;;;17.13;;
9924;SDS011;5001;51.674;7.868;2024-02-26T12:18:08;19.80;;;18.00;;
9924;SDS011;5001;51.674;7.868;2024-02-26T12:20:39;19.57;;;17.97;;
9924;SDS011;5001;51.674;7.868;2024-02-26T12:23:06;19.70;;;17.87;;
9924;SDS011;5001;51.674;7.868;2024-02-26T12:25:33;19.00;;;17.50;;
9924;SDS011;5001;51.674;7.868;2024-02-26T12:28:00;18.47;;;17.00;;
9924;SDS011;5001;51.674;7.868;2024-02-26T12:30:27;18.30;;;17.00;;
9924;SDS011;5001;51.674;7.868;2024-02-26T12:32:59;19.50;;;17.90;;
9924;SDS011;5001;51.674;7.868;2024-02-26T12:35:28;19.47;;;17.87;;
9924;SDS011;5001;51.674;7.868;2024-02-26T12:37:57;19.03;;;17.63;;
9924;SDS011;5001;51.674;7.868;2024-02-26T12:40:25;19.07;;;17.40;;
9924;SDS011;5001;51.674;7.868;2024-02-26T12:42:53;18.80;;;17.30;;
9924;SDS011;5001;51.674;7.868;2024-02-26T12:45:21;18.97;;;17.57;;
9924;SDS011;5001;51.674;7.868;2024-02-26T12:47:48;19.40;;;17.73;;
9924;SDS011;5001;51.674;7.868;2024-02-26T12:50:16;18.83;;;17.53;;
9924;SDS011;5001;51.674;7.868;2024-02-26T12:52:44;20.03;;;18.33;;
9924;SDS011;5001;51.674;7.868;2024-02-26T12:55:16;19.13;;;17.53;;
9924;SDS011;5001;51.674;7.868;2024-02-26T12:57:45;19.07;;;17.53;;
9924;SDS011;5001;51.674;7.868;2024-02-26T13:00:13;19.43;;;17.83;;
9924;SDS011;5001;51.674;7.868;2024-02-26T13:02:44;21.10;;;19.07;;
9924;SDS011;5001;51.674;7.868;2024-02-26T13:05:12;19.93;;;18.20;;
9924;SDS011;5001;51.674;7.868;2024-02-26T13:07:41;20.13;;;18.33;;
9924;SDS011;5001;51.674;7.868;2024-02-26T13:10:09;19.47;;;18.07;;
9924;SDS011;5001;51.674;7.868;2024-02-26T13:12:44;18.80;;;17.40;;
9924;SDS011;5001;51.674;7.868;2024-02-26T13:15:16;19.03;;;17.67;;
9924;SDS011;5001;51.674;7.868;2024-02-26T13:17:45;18.97;;;17.30;;
9924;SDS011;5001;51.674;7.868;2024-02-26T13:20:24;18.90;;;17.47;;
9924;SDS011;5001;51.674;7.868;2024-02-26T13:23:02;19.50;;;17.80;;
9924;SDS011;5001;51.674;7.868;2024-02-26T13:25:30;18.87;;;17.47;;
9924;SDS011;5001;51.674;7.868;2024-02-26T13:28:07;18.50;;;17.10;;
9924;SDS011;5001;51.674;7.868;2024-02-26T13:30:54;19.00;;;17.50;;
9924;SDS011;5001;51.674;7.868;2024-02-26T13:33:23;18.87;;;17.47;;
9924;SDS011;5001;51.674;7.868;2024-02-26T13:35:52;18.57;;;17.17;;
9924;SDS011;5001;51.674;7.868;2024-02-26T13:38:19;18.80;;;17.30;;
9924;SDS011;5001;51.674;7.868;2024-02-26T13:40:46;18.80;;;17.40;;
9924;SDS011;5001;51.674;7.868;2024-02-26T13:43:13;19.70;;;18.23;;
9924;SDS011;5001;51.674;7.868;2024-02-26T13:45:40;18.77;;;17.37;;
9924;SDS011;5001;51.674;7.868;2024-02-26T13:48:08;19.70;;;18.00;;
9924;SDS011;5001;51.674;7.868;2024-02-26T13:50:39;20.03;;;18.50;;
9924;SDS011;5001;51.674;7.868;2024-02-26T13:53:09;19.70;;;18.10;;
9924;SDS011;5001;51.674;7.868;2024-02-26T13:55:37;19.43;;;18.03;;
9924;SDS011;5001;51.674;7.868;2024-02-26T13:58:06;19.60;;;18.20;;
9924;SDS011;5001;51.674;7.868;2024-02-26T14:00:33;19.73;;;17.80;;
9924;SDS011;5001;51.674;7.868;2024-02-26T14:03:01;19.03;;;17.70;;
9924;SDS011;5001;51.674;7.868;2024-02-26T14:05:29;19.50;;;17.90;;
9924;SDS011;5001;51.674;7.868;2024-02-26T14:07:57;18.83;;;17.37;;
9924;SDS011;5001;51.674;7.868;2024-02-26T14:10:24;18.80;;;17.30;;
9924;SDS011;5001;51.674;7.868;2024-02-26T14:12:52;18.73;;;17.43;;
9924;SDS011;5001;51.674;7.868;2024-02-26T14:15:19;18.90;;;17.37;;
9924;SDS011;5001;51.674;7.868;2024-02-26T14:17:46;19.20;;;17.37;;
9924;SDS011;5001;51.674;7.868;2024-02-26T14:20:20;18.17;;;16.63;;
9924;SDS011;5001;51.674;7.868;2024-02-26T14:22:48;18.50;;;17.20;;
9924;SDS011;5001;51.674;7.868;2024-02-26T14:25:17;19.20;;;17.50;;
9924;SDS011;5001;51.674;7.868;2024-02-26T14:27:49;18.37;;;17.07;;
9924;SDS011;5001;51.674;7.868;2024-02-26T14:30:16;18.00;;;16.80;;
9924;SDS011;5001;51.674;7.868;2024-02-26T14:32:43;17.90;;;16.67;;
9924;SDS011;5001;51.674;7.868;2024-02-26T14:35:10;17.97;;;16.67;;
9924;SDS011;5001;51.674;7.868;2024-02-26T14:37:43;17.90;;;16.50;;
9924;SDS011;5001;51.674;7.868;2024-02-26T14:40:15;17.20;;;16.10;;
9924;SDS011;5001;51.674;7.868;2024-02-26T14:42:43;17.63;;;16.33;;
9924;SDS011;5001;51.674;7.868;2024-02-26T14:45:10;18.00;;;16.70;;
9924;SDS011;5001;51.674;7.868;2024-02-26T14:47:38;17.40;;;16.20;;
9924;SDS011;5001;51.674;7.868;2024-02-26T14:50:06;17.63;;;16.43;;
9924;SDS011;5001;51.674;7.868;2024-02-26T14:52:33;18.73;;;17.03;;
9924;SDS011;5001;51.674;7.868;2024-02-26T14:55:00;17.30;;;16.10;;
9924;SDS011;5001;51.674;7.868;2024-02-26T14:57:27;17.30;;;16.10;;
9924;SDS011;5001;51.674;7.868;2024-02-26T14:59:54;18.40;;;16.97;;
9924;SDS011;5001;51.674;7.868;2024-02-26T15:02:21;17.30;;;16.10;;
9924;SDS011;5001;51.674;7.868;2024-02-26T15:04:48;17.97;;;16.63;;
9924;SDS011;5001;51.674;7.868;2024-02-26T15:07:16;17.37;;;16.27;;